James Reserve, California Weather observations

Data are for 10 minute period ending at time listed.
 Day   Time   Solar   Ave.   Ave.  Ave.  Vector  Max.   Baro.   Total    
  of    of     Rad.   Air    Rel.  Wind   Wind   Wind  Press.  Precip.   
Year   Day            Temp.  Hum.  Speed  Dir.   Gust                    
2014   (PST)  Kw/m2    F      %     mph   deg.    mph    mb.     in.     
-------------------------------------------------------------------------
 259   13:30   0.04   76.3    55    0.6    66     1.2   837.0    0.00 
 259   13:40   0.05   76.1    54    0.4    94     0.8   837.0    0.00 
 259   13:50   0.05   75.4    57    0.3   102     1.1   837.0    0.00 
 259   14:00   0.06   75.1    56    0.4    21     0.9   837.0    0.00 
 259   14:10   0.06   74.7    59    0.4   208     1.2   837.0    0.00 
 259   14:20   0.06   74.2    60    0.4   216     1.1   837.0    0.00 
 259   14:30   0.07   74.3    60    0.4    44     1.0   837.0    0.00 
 259   14:40   0.07   73.8    62    0.2   141     0.5   837.0    0.00 
 259   14:50   0.05   73.2    64    0.2    23     0.3   837.0    0.00 
 259   15:00   0.05   72.8    65    0.1   319     0.3   837.0    0.00 
 259   15:10   0.07   72.6    67    0.3   229     0.8   837.0    0.00 
 259   15:20   0.10   72.8    66    0.3    66     0.5   837.0    0.00 
 259   15:30   0.12   73.7    63    0.3   235     0.7   837.0    0.00 
 259   15:40   0.12   73.8    64    0.3   248     0.6   837.0    0.00 
 259   15:50   0.10   73.9    62    0.6   230     0.9   837.0    0.00 
 259   16:00   0.08   73.5    65    0.2   205     0.7   837.0    0.00 
 259   16:10   0.08   73.4    66    0.1   255     0.3   837.0    0.00 
 259   16:20   0.08   73.2    67    0.3   228     0.9   837.0    0.00 
 259   16:30   0.07   72.3    66    0.4   178     1.1   837.0    0.00 
 259   16:40   0.07   71.6    67    0.3    79     0.8   837.0    0.00 
 259   16:50   0.07   71.8    67    0.2   258     0.6   837.0    0.00 
 259   17:00   0.05   71.8    69    0.6   232     1.0   837.0    0.00 
 259   17:10   0.04   71.5    70    0.3   236     0.7   837.0    0.00 
 259   17:20   0.03   71.2    71    0.3   231     0.5   837.0    0.00 
 259   17:30   0.02   70.8    72    0.1   316     0.2   837.0    0.00 
 259   17:40   0.02   70.5    71    0.3    21     0.6   837.0    0.00 
 259   17:50   0.01   70.1    73    0.1     9     0.3   837.0    0.00 
 259   18:00   0.00   69.3    74    0.2   348     0.4   837.0    0.00 
 259   18:10   0.00   68.5    75    0.3    37     0.5   837.0    0.00 
 259   18:20   0.00   67.8    76    0.3     3     0.5   837.0    0.00 
 259   18:30   0.00   67.0    77    0.2     3     0.4   837.0    0.00 
 259   18:40   0.00   66.3    77    0.3     8     0.4   837.0    0.00 
 259   18:50   0.00   65.9    77    0.3   358     0.5   837.0    0.00 
 259   19:00   0.00   65.3    78    0.2   344     0.6   837.0    0.00 
 259   19:10   0.00   64.8    79    0.1    13     0.4   837.0    0.00 
 259   19:20   0.00   64.3    80    0.2   348     0.4   838.0    0.00 
 259   19:30   0.00   63.8    80    0.2   357     0.3   838.0    0.00 
 259   19:40   0.00   63.4    80    0.2   343     0.4   838.0    0.00 
 259   19:50   0.00   62.9    81    0.2     8     0.4   838.0    0.00 
 259   20:00   0.00   62.7    81    0.3     8     0.5   838.0    0.00 
 259   20:10   0.00   62.5    81    0.3   357     0.4   838.0    0.00 
 259   20:20   0.00   62.1    82    0.2   347     0.5   838.0    0.00 
 259   20:30   0.00   61.9    82    0.3    24     0.4   838.0    0.00 
 259   20:40   0.00   61.7    83    0.2    14     0.3   838.0    0.00 
 259   20:50   0.00   61.4    83    0.2     2     0.5   838.0    0.00 
 259   21:00   0.00   61.2    84    0.3    13     0.5   838.0    0.00 
 259   21:10   0.00   61.2    84    0.3    21     0.5   838.0    0.00 
 259   21:20   0.00   60.9    84    0.2   358     0.3   838.0    0.00 
 259   21:30   0.00   60.7    84    0.2   353     0.5   838.0    0.00 
 259   21:40   0.00   60.7    83    0.3    26     0.7   838.0    0.00 
 259   21:50   0.00   60.6    83    0.3    21     0.7   838.0    0.00 
 259   22:00   0.00   60.5    83    0.3    35     0.6   838.0    0.00 
 259   22:10   0.00   60.4    84    0.2    14     0.5   838.0    0.00 
 259   22:20   0.00   60.2    85    0.2     4     0.4   838.0    0.00 
 259   22:30   0.00   60.2    85    0.3    30     0.5   838.0    0.00 
 259   22:40   0.00   60.0    85    0.2     9     0.5   838.0    0.00 
 259   22:50   0.00   59.9    85    0.3     7     0.5   838.0    0.00 
 259   23:00   0.00   59.6    84    0.2    12     0.5   838.0    0.00 
 259   23:10   0.00   59.4    84    0.3   356     0.6   837.0    0.00 
 259   23:20   0.00   59.2    85    0.2     6     0.5   837.0    0.00 
 259   23:30   0.00   58.9    85    0.3    30     0.7   837.0    0.00 
 259   23:40   0.00   58.9    86    0.3    32     0.7   837.0    0.00 
 259   23:50   0.00   58.8    86    0.3    28     0.6   837.0    0.00 
 260    0:00   0.00   58.6    85    0.3    13     0.5   837.0    0.00 
 260    0:10   0.00   58.5    85    0.2    30     0.3   837.0    0.00 
 260    0:20   0.00   58.3    86    0.2    15     0.4   837.0    0.00 
 260    0:30   0.00   58.2    86    0.2     3     0.6   837.0    0.00 
 260    0:40   0.00   58.3    86    0.3    41     0.6   837.0    0.00 
 260    0:50   0.00   58.4    85    0.2    20     0.4   837.0    0.00 
 260    1:00   0.00   58.3    86    0.3    30     0.6   837.0    0.00 
 260    1:10   0.00   58.3    85    0.3    27     0.6   837.0    0.00 
 260    1:20   0.00   58.5    84    0.4    29     0.6   837.0    0.00 
 260    1:30   0.00   58.6    82    0.3    36     0.5   837.0    0.00 
 260    1:40   0.00   58.7    82    0.4    26     0.7   837.0    0.00 
 260    1:50   0.00   58.9    82    0.5    40     0.8   837.0    0.00 
 260    2:00   0.00   59.1    81    0.5    47     0.8   837.0    0.00 
 260    2:10   0.00   59.3    81    0.4    43     0.8   837.0    0.00 
 260    2:20   0.00   59.2    82    0.5    46     0.7   836.0    0.00 
 260    2:30   0.00   59.3    82    0.4    42     0.6   836.0    0.00 
 260    2:40   0.00   59.2    82    0.2    31     0.5   836.0    0.00 
 260    2:50   0.00   59.0    84    0.2    27     0.3   836.0    0.00 
 260    3:00   0.00   58.7    85    0.2    20     0.3   836.0    0.00 
 260    3:10   0.00   58.4    86    0.2    15     0.3   836.0    0.00 
 260    3:20   0.00   58.1    87    0.2     1     0.3   836.0    0.00 
 260    3:30   0.00   57.8    87    0.1   355     0.2   836.0    0.00 
 260    3:40   0.00   57.5    88    0.2    20     0.4   836.0    0.00 
 260    3:50   0.00   57.4    89    0.3    22     0.5   836.0    0.00 
 260    4:00   0.00   57.3    89    0.2    36     0.5   836.0    0.00 
 260    4:10   0.00   57.2    90    0.2    14     0.5   836.0    0.00 
 260    4:20   0.00   56.9    90    0.3    30     0.5   836.0    0.00 
 260    4:30   0.00   56.8    90    0.2    24     0.5   836.0    0.00 
 260    4:40   0.00   56.6    89    0.2     2     0.5   836.0    0.00 
 260    4:50   0.00   56.4    89    0.2    22     0.4   836.0    0.00 
 260    5:00   0.00   56.2    89    0.2    19     0.3   836.0    0.00 
 260    5:10   0.00   56.1    89    0.2    23     0.3   836.0    0.00 
 260    5:20   0.00   56.0    89    0.3    29     0.4   836.0    0.00 
 260    5:30   0.00   56.0    90    0.2    24     0.4   836.0    0.00 
 260    5:40   0.00   56.0    90    0.2    26     0.4   837.0    0.00 
 260    5:50   0.00   55.9    90    0.2    25     0.4   837.0    0.00 
 260    6:00   0.01   56.0    90    0.2    10     0.4   837.0    0.00 
 260    6:10   0.01   56.0    90    0.2    32     0.4   837.0    0.00 
 260    6:20   0.01   56.1    90    0.2    21     0.3   837.0    0.00 
 260    6:30   0.01   56.1    90    0.2    31     0.3   837.0    0.00 
 260    6:40   0.02   56.2    90    0.3    44     0.5   837.0    0.00 
 260    6:50   0.02   56.5    89    0.4    45     0.6   837.0    0.00 
 260    7:00   0.02   57.0    88    0.6    49     0.9   837.0    0.00 
 260    7:10   0.03   57.6    88    0.5    51     0.9   837.0    0.00 
 260    7:20   0.03   58.2    87    0.6    49     0.9   837.0    0.00 
 260    7:30   0.03   59.1    87    0.7    52     0.9   837.0    0.00 
 260    7:40   0.03   59.9    87    0.5    52     0.8   837.0    0.00 
 260    7:50   0.04   60.8    86    0.5    58     0.9   837.0    0.00 
 260    8:00   0.04   61.9    85    0.4    81     1.1   837.0    0.00 
 260    8:10   0.04   63.7    82    0.4    51     1.0   837.0    0.00 
 260    8:20   0.04   65.6    78    0.3    88     0.9   837.0    0.00 
 260    8:30   0.04   68.1    73    0.4   190     1.7   837.0    0.00 
 260    8:40   0.04   69.6    69    0.5   187     1.2   837.0    0.00 
 260    8:50   0.04   70.1    68    0.5   175     1.1   837.0    0.00 
 260    9:00   0.05   70.7    68    0.5   185     1.3   837.0    0.00 
 260    9:10   0.07   71.2    66    0.6   225     1.4   837.0    0.00 
 260    9:20   0.23   70.8    67    0.5   138     1.6   837.0    0.00 
 260    9:30   0.31   71.7    65    0.7    29     1.3   837.0    0.00 
 260    9:40   0.10   72.4    64    0.7   194     1.9   837.0    0.00 
 260    9:50   0.07   72.7    63    0.9   188     2.9   837.0    0.00 
 260   10:00   0.15   73.4    62    1.0   186     2.8   837.0    0.00 
 260   10:10   0.14   74.1    60    1.1   139     2.7   837.0    0.00 
 260   10:20   0.12   73.6    61    0.8   216     2.3   837.0    0.00 
 260   10:30   0.17   72.6    62    0.8   210     1.6   837.0    0.00 
 260   10:40   0.17   73.2    62    0.6    79   1000.0   837.0    0.00 
 260   10:50   0.70   75.1    58    1.1    35   1000.0   837.0    0.00 
 260   11:00   0.55   74.5    59    1.0    76     2.8   837.0    0.00 
 260   11:10   0.19   73.3    62    0.7   162   1000.0   837.0    0.00 
 260   11:20   0.55   73.9    61    0.7    60     1.7   837.0    0.00 
 260   11:30   0.20   73.9    61    0.7    56     1.5   837.0    0.00 
 260   11:40   0.16   73.4    63    1.1   161     2.0   837.0    0.00 
 260   11:50   0.55   73.4    62    0.9    66     2.6   837.0    0.00 
 260   12:00   0.59   74.6    59    0.9   106     2.3   837.0    0.00 
 260   12:10   0.18   74.2    59    0.6   127     1.9   836.0    0.00 
 260   12:20   0.21   74.4    58    0.6    38     1.6   836.0    0.00 
 260   12:30   0.24   74.7    59    0.7   357     2.1   836.0    0.00 
 260   12:40   0.50   74.9    57    0.7    68     2.0   836.0    0.00 
 260   12:50   0.55   75.8    56    1.3   222     3.1   836.0    0.00 
 260   13:00   0.90   76.4    54    1.3   211     3.6   836.0    0.00 
 260   13:10   0.78   76.9    52    1.1    79     3.8   836.0    0.00 
 260   13:20   0.46   76.3    53    1.2    53     3.3   836.0    0.00 

Return to James Reserve graphs page.


Western Regional Climate Center,wrcc@dri.edu